sensor_id;sensor_type;location;lat;lon;timestamp;temperature;humidity
33825;DHT22;20127;48.962;8.342;2023-02-13T00:01:31;5.60;99.90
33825;DHT22;20127;48.962;8.342;2023-02-13T00:04:33;5.70;99.90
33825;DHT22;20127;48.962;8.342;2023-02-13T00:07:36;5.70;99.90
33825;DHT22;20127;48.962;8.342;2023-02-13T00:10:38;5.60;99.90
33825;DHT22;20127;48.962;8.342;2023-02-13T00:13:40;5.60;99.90
33825;DHT22;20127;48.962;8.342;2023-02-13T00:16:41;5.60;99.90
33825;DHT22;20127;48.962;8.342;2023-02-13T00:19:43;5.60;99.90
33825;DHT22;20127;48.962;8.342;2023-02-13T00:22:46;5.60;99.90
33825;DHT22;20127;48.962;8.342;2023-02-13T00:25:48;5.60;99.90
33825;DHT22;20127;48.962;8.342;2023-02-13T00:28:49;5.60;99.90
33825;DHT22;20127;48.962;8.342;2023-02-13T00:31:51;5.50;99.90
33825;DHT22;20127;48.962;8.342;2023-02-13T00:34:53;5.50;99.90
33825;DHT22;20127;48.962;8.342;2023-02-13T00:37:56;5.50;99.90
33825;DHT22;20127;48.962;8.342;2023-02-13T00:40:58;5.40;99.90
33825;DHT22;20127;48.962;8.342;2023-02-13T00:43:59;5.40;99.90
33825;DHT22;20127;48.962;8.342;2023-02-13T00:47:01;5.30;99.90
33825;DHT22;20127;48.962;8.342;2023-02-13T00:50:04;5.30;99.90
33825;DHT22;20127;48.962;8.342;2023-02-13T00:53:07;5.20;99.90
33825;DHT22;20127;48.962;8.342;2023-02-13T00:56:08;5.10;99.90
33825;DHT22;20127;48.962;8.342;2023-02-13T00:59:10;5.10;99.90
33825;DHT22;20127;48.962;8.342;2023-02-13T01:02:12;5.00;99.90
33825;DHT22;20127;48.962;8.342;2023-02-13T01:05:13;4.90;99.90
33825;DHT22;20127;48.962;8.342;2023-02-13T01:08:18;4.90;99.90
33825;DHT22;20127;48.962;8.342;2023-02-13T01:11:19;4.80;99.90
33825;DHT22;20127;48.962;8.342;2023-02-13T01:14:21;4.80;99.90
33825;DHT22;20127;48.962;8.342;2023-02-13T01:17:23;4.70;99.90
33825;DHT22;20127;48.962;8.342;2023-02-13T01:20:25;4.60;99.90
33825;DHT22;20127;48.962;8.342;2023-02-13T01:23:31;4.50;99.90
33825;DHT22;20127;48.962;8.342;2023-02-13T01:26:33;4.30;99.90
33825;DHT22;20127;48.962;8.342;2023-02-13T01:29:34;4.20;99.90
33825;DHT22;20127;48.962;8.342;2023-02-13T01:32:36;4.10;99.90
33825;DHT22;20127;48.962;8.342;2023-02-13T01:35:38;4.00;99.90
33825;DHT22;20127;48.962;8.342;2023-02-13T01:38:41;4.00;99.90
33825;DHT22;20127;48.962;8.342;2023-02-13T01:41:43;3.90;99.90
33825;DHT22;20127;48.962;8.342;2023-02-13T01:44:46;3.80;99.90
33825;DHT22;20127;48.962;8.342;2023-02-13T01:47:51;3.80;99.90
33825;DHT22;20127;48.962;8.342;2023-02-13T01:50:57;3.80;99.90
33825;DHT22;20127;48.962;8.342;2023-02-13T01:54:05;3.80;99.90
33825;DHT22;20127;48.962;8.342;2023-02-13T01:57:12;3.80;99.90
33825;DHT22;20127;48.962;8.342;2023-02-13T02:00:15;3.80;99.90
33825;DHT22;20127;48.962;8.342;2023-02-13T02:03:21;3.80;99.90
33825;DHT22;20127;48.962;8.342;2023-02-13T02:06:28;3.80;99.90
33825;DHT22;20127;48.962;8.342;2023-02-13T02:09:37;3.80;99.90
33825;DHT22;20127;48.962;8.342;2023-02-13T02:12:43;3.80;99.90
33825;DHT22;20127;48.962;8.342;2023-02-13T02:15:48;3.80;99.90
33825;DHT22;20127;48.962;8.342;2023-02-13T02:18:50;3.80;99.90
33825;DHT22;20127;48.962;8.342;2023-02-13T02:22:16;3.70;99.90
33825;DHT22;20127;48.962;8.342;2023-02-13T02:26:03;3.70;99.90
33825;DHT22;20127;48.962;8.342;2023-02-13T02:29:29;3.70;99.90
33825;DHT22;20127;48.962;8.342;2023-02-13T02:36:13;3.60;99.90
33825;DHT22;20127;48.962;8.342;2023-02-13T02:39:24;3.50;99.90
33825;DHT22;20127;48.962;8.342;2023-02-13T02:42:32;3.40;99.90
33825;DHT22;20127;48.962;8.342;2023-02-13T02:45:39;3.40;99.90
33825;DHT22;20127;48.962;8.342;2023-02-13T02:48:49;3.40;99.90
33825;DHT22;20127;48.962;8.342;2023-02-13T02:52:16;3.30;99.90
33825;DHT22;20127;48.962;8.342;2023-02-13T02:55:28;3.30;99.90
33825;DHT22;20127;48.962;8.342;2023-02-13T02:58:37;3.30;99.90
33825;DHT22;20127;48.962;8.342;2023-02-13T03:02:03;3.30;99.90
33825;DHT22;20127;48.962;8.342;2023-02-13T03:05:27;3.20;99.90
33825;DHT22;20127;48.962;8.342;2023-02-13T03:08:52;3.20;99.90
33825;DHT22;20127;48.962;8.342;2023-02-13T03:12:16;3.10;99.90
33825;DHT22;20127;48.962;8.342;2023-02-13T03:15:38;3.10;99.90
33825;DHT22;20127;48.962;8.342;2023-02-13T03:19:00;3.00;99.90
33825;DHT22;20127;48.962;8.342;2023-02-13T03:22:35;3.00;99.90
33825;DHT22;20127;48.962;8.342;2023-02-13T03:26:00;3.00;99.90
33825;DHT22;20127;48.962;8.342;2023-02-13T03:29:10;2.90;99.90
33825;DHT22;20127;48.962;8.342;2023-02-13T03:32:36;2.90;99.90
33825;DHT22;20127;48.962;8.342;2023-02-13T03:35:46;2.80;99.90
33825;DHT22;20127;48.962;8.342;2023-02-13T03:39:14;2.70;99.90
33825;DHT22;20127;48.962;8.342;2023-02-13T03:42:25;2.70;99.90
33825;DHT22;20127;48.962;8.342;2023-02-13T03:45:29;2.60;99.90
33825;DHT22;20127;48.962;8.342;2023-02-13T03:48:49;2.60;99.90
33825;DHT22;20127;48.962;8.342;2023-02-13T03:52:14;2.50;99.90
33825;DHT22;20127;48.962;8.342;2023-02-13T03:55:20;2.40;99.90
33825;DHT22;20127;48.962;8.342;2023-02-13T03:58:44;2.40;99.90
33825;DHT22;20127;48.962;8.342;2023-02-13T04:02:09;2.30;99.90
33825;DHT22;20127;48.962;8.342;2023-02-13T04:05:15;2.20;99.90
33825;DHT22;20127;48.962;8.342;2023-02-13T04:08:18;2.20;99.90
33825;DHT22;20127;48.962;8.342;2023-02-13T04:11:27;2.10;99.90
33825;DHT22;20127;48.962;8.342;2023-02-13T04:14:35;2.00;99.90
33825;DHT22;20127;48.962;8.342;2023-02-13T04:17:39;2.00;99.90
33825;DHT22;20127;48.962;8.342;2023-02-13T04:20:42;2.00;99.90
33825;DHT22;20127;48.962;8.342;2023-02-13T04:23:44;1.90;99.90
33825;DHT22;20127;48.962;8.342;2023-02-13T04:26:47;1.80;99.90
33825;DHT22;20127;48.962;8.342;2023-02-13T04:29:48;1.90;99.90
33825;DHT22;20127;48.962;8.342;2023-02-13T04:32:50;1.80;99.90
33825;DHT22;20127;48.962;8.342;2023-02-13T04:35:52;1.80;99.90
33825;DHT22;20127;48.962;8.342;2023-02-13T04:38:54;1.80;99.90
33825;DHT22;20127;48.962;8.342;2023-02-13T04:41:57;1.70;99.90
33825;DHT22;20127;48.962;8.342;2023-02-13T04:44:58;1.70;99.90
33825;DHT22;20127;48.962;8.342;2023-02-13T04:48:00;1.60;99.90
33825;DHT22;20127;48.962;8.342;2023-02-13T04:51:02;1.60;99.90
33825;DHT22;20127;48.962;8.342;2023-02-13T04:54:04;1.50;99.90
33825;DHT22;20127;48.962;8.342;2023-02-13T04:57:07;1.50;99.90
33825;DHT22;20127;48.962;8.342;2023-02-13T05:00:10;1.40;99.90
33825;DHT22;20127;48.962;8.342;2023-02-13T05:03:12;1.40;99.90
33825;DHT22;20127;48.962;8.342;2023-02-13T05:06:14;1.30;99.90
33825;DHT22;20127;48.962;8.342;2023-02-13T05:09:16;1.20;99.90
33825;DHT22;20127;48.962;8.342;2023-02-13T05:12:19;1.10;99.90
33825;DHT22;20127;48.962;8.342;2023-02-13T05:15:20;1.10;99.90
33825;DHT22;20127;48.962;8.342;2023-02-13T05:18:22;1.00;99.90
33825;DHT22;20127;48.962;8.342;2023-02-13T05:21:24;0.90;99.90
33825;DHT22;20127;48.962;8.342;2023-02-13T05:24:43;0.90;99.90
33825;DHT22;20127;48.962;8.342;2023-02-13T05:27:46;0.80;99.90
33825;DHT22;20127;48.962;8.342;2023-02-13T05:30:48;0.70;99.90
33825;DHT22;20127;48.962;8.342;2023-02-13T05:33:49;0.70;99.90
33825;DHT22;20127;48.962;8.342;2023-02-13T05:36:51;0.60;99.90
33825;DHT22;20127;48.962;8.342;2023-02-13T05:39:53;0.60;99.90
33825;DHT22;20127;48.962;8.342;2023-02-13T05:42:56;0.60;99.90
33825;DHT22;20127;48.962;8.342;2023-02-13T05:46:02;0.60;99.90
33825;DHT22;20127;48.962;8.342;2023-02-13T05:49:04;0.60;99.90
33825;DHT22;20127;48.962;8.342;2023-02-13T05:52:05;0.60;99.90
33825;DHT22;20127;48.962;8.342;2023-02-13T05:55:07;0.60;99.90
33825;DHT22;20127;48.962;8.342;2023-02-13T05:58:10;0.60;99.90
33825;DHT22;20127;48.962;8.342;2023-02-13T06:01:12;0.60;99.90
33825;DHT22;20127;48.962;8.342;2023-02-13T06:04:23;0.60;99.90
33825;DHT22;20127;48.962;8.342;2023-02-13T06:07:24;0.50;99.90
33825;DHT22;20127;48.962;8.342;2023-02-13T06:10:26;0.50;99.90
33825;DHT22;20127;48.962;8.342;2023-02-13T06:13:29;0.40;99.90
33825;DHT22;20127;48.962;8.342;2023-02-13T06:16:31;0.40;99.90
33825;DHT22;20127;48.962;8.342;2023-02-13T06:19:34;0.30;99.90
33825;DHT22;20127;48.962;8.342;2023-02-13T06:22:35;0.30;99.90
33825;DHT22;20127;48.962;8.342;2023-02-13T06:25:37;0.20;99.90
33825;DHT22;20127;48.962;8.342;2023-02-13T06:28:40;0.20;99.90
33825;DHT22;20127;48.962;8.342;2023-02-13T06:31:42;0.20;99.90
33825;DHT22;20127;48.962;8.342;2023-02-13T06:34:43;0.30;99.90
33825;DHT22;20127;48.962;8.342;2023-02-13T06:37:45;0.40;99.90
33825;DHT22;20127;48.962;8.342;2023-02-13T06:40:48;0.40;99.90
33825;DHT22;20127;48.962;8.342;2023-02-13T06:43:51;0.40;99.90
33825;DHT22;20127;48.962;8.342;2023-02-13T06:46:53;0.40;99.90
33825;DHT22;20127;48.962;8.342;2023-02-13T06:49:55;0.30;99.90
33825;DHT22;20127;48.962;8.342;2023-02-13T06:52:56;0.30;99.90
33825;DHT22;20127;48.962;8.342;2023-02-13T06:55:58;0.20;99.90
33825;DHT22;20127;48.962;8.342;2023-02-13T06:59:04;0.30;99.90
33825;DHT22;20127;48.962;8.342;2023-02-13T07:02:08;0.30;99.90
33825;DHT22;20127;48.962;8.342;2023-02-13T07:05:10;0.30;99.90
33825;DHT22;20127;48.962;8.342;2023-02-13T07:08:12;0.30;99.90
33825;DHT22;20127;48.962;8.342;2023-02-13T07:11:17;0.40;99.90
33825;DHT22;20127;48.962;8.342;2023-02-13T07:14:20;0.40;99.90
33825;DHT22;20127;48.962;8.342;2023-02-13T07:17:22;0.50;99.90
33825;DHT22;20127;48.962;8.342;2023-02-13T07:20:24;0.60;99.90
33825;DHT22;20127;48.962;8.342;2023-02-13T07:23:26;0.70;99.90
33825;DHT22;20127;48.962;8.342;2023-02-13T07:26:28;0.80;99.90
33825;DHT22;20127;48.962;8.342;2023-02-13T07:29:31;0.90;99.90
33825;DHT22;20127;48.962;8.342;2023-02-13T07:32:33;1.10;99.90
33825;DHT22;20127;48.962;8.342;2023-02-13T07:35:34;1.20;99.90
33825;DHT22;20127;48.962;8.342;2023-02-13T07:38:37;1.20;99.90
33825;DHT22;20127;48.962;8.342;2023-02-13T07:41:38;1.40;99.90
33825;DHT22;20127;48.962;8.342;2023-02-13T07:44:41;1.40;99.90
33825;DHT22;20127;48.962;8.342;2023-02-13T07:47:44;1.50;99.90
33825;DHT22;20127;48.962;8.342;2023-02-13T07:50:46;1.60;99.90
33825;DHT22;20127;48.962;8.342;2023-02-13T07:53:47;1.80;99.90
33825;DHT22;20127;48.962;8.342;2023-02-13T07:56:49;1.80;99.90
33825;DHT22;20127;48.962;8.342;2023-02-13T07:59:52;1.90;99.90
33825;DHT22;20127;48.962;8.342;2023-02-13T08:02:54;2.10;99.90
33825;DHT22;20127;48.962;8.342;2023-02-13T08:05:56;2.20;99.90
33825;DHT22;20127;48.962;8.342;2023-02-13T08:08:57;2.40;99.90
33825;DHT22;20127;48.962;8.342;2023-02-13T08:12:16;2.60;99.90
33825;DHT22;20127;48.962;8.342;2023-02-13T08:15:19;2.70;99.90
33825;DHT22;20127;48.962;8.342;2023-02-13T08:18:21;2.80;99.90
33825;DHT22;20127;48.962;8.342;2023-02-13T08:21:23;2.90;99.90
33825;DHT22;20127;48.962;8.342;2023-02-13T08:24:25;2.90;99.90
33825;DHT22;20127;48.962;8.342;2023-02-13T08:27:27;2.90;99.90
33825;DHT22;20127;48.962;8.342;2023-02-13T08:30:30;3.00;99.90
33825;DHT22;20127;48.962;8.342;2023-02-13T08:33:32;3.10;99.90
33825;DHT22;20127;48.962;8.342;2023-02-13T08:36:34;3.40;99.90
33825;DHT22;20127;48.962;8.342;2023-02-13T08:39:35;3.50;99.90
33825;DHT22;20127;48.962;8.342;2023-02-13T08:42:37;3.50;99.90
33825;DHT22;20127;48.962;8.342;2023-02-13T08:45:40;3.40;99.90
33825;DHT22;20127;48.962;8.342;2023-02-13T08:48:42;3.30;99.90
33825;DHT22;20127;48.962;8.342;2023-02-13T08:51:44;3.10;99.90
33825;DHT22;20127;48.962;8.342;2023-02-13T08:54:46;3.10;99.90
33825;DHT22;20127;48.962;8.342;2023-02-13T08:57:47;3.10;99.90
33825;DHT22;20127;48.962;8.342;2023-02-13T09:00:50;3.10;99.90
33825;DHT22;20127;48.962;8.342;2023-02-13T09:03:52;3.30;99.90
33825;DHT22;20127;48.962;8.342;2023-02-13T09:06:55;3.40;99.90
33825;DHT22;20127;48.962;8.342;2023-02-13T09:09:56;3.50;99.90
33825;DHT22;20127;48.962;8.342;2023-02-13T09:12:58;3.50;99.90
33825;DHT22;20127;48.962;8.342;2023-02-13T09:16:03;3.50;99.90
33825;DHT22;20127;48.962;8.342;2023-02-13T09:19:05;3.40;99.90
33825;DHT22;20127;48.962;8.342;2023-02-13T09:22:07;3.50;99.90
33825;DHT22;20127;48.962;8.342;2023-02-13T09:25:09;3.60;99.90
33825;DHT22;20127;48.962;8.342;2023-02-13T09:28:10;3.60;99.90
33825;DHT22;20127;48.962;8.342;2023-02-13T09:31:14;3.70;99.90
33825;DHT22;20127;48.962;8.342;2023-02-13T09:34:16;3.70;99.90
33825;DHT22;20127;48.962;8.342;2023-02-13T09:37:18;3.90;99.90
33825;DHT22;20127;48.962;8.342;2023-02-13T09:40:24;3.90;99.90
33825;DHT22;20127;48.962;8.342;2023-02-13T09:43:30;4.00;99.90
33825;DHT22;20127;48.962;8.342;2023-02-13T09:46:35;4.20;99.90
33825;DHT22;20127;48.962;8.342;2023-02-13T09:49:40;4.40;99.90
33825;DHT22;20127;48.962;8.342;2023-02-13T09:52:45;4.60;99.90
33825;DHT22;20127;48.962;8.342;2023-02-13T09:55:54;4.70;99.90
33825;DHT22;20127;48.962;8.342;2023-02-13T09:59:02;4.70;99.90
33825;DHT22;20127;48.962;8.342;2023-02-13T10:02:22;4.80;99.90
33825;DHT22;20127;48.962;8.342;2023-02-13T10:05:40;4.90;99.90
33825;DHT22;20127;48.962;8.342;2023-02-13T10:08:55;4.90;99.90
33825;DHT22;20127;48.962;8.342;2023-02-13T10:12:29;5.00;99.90
33825;DHT22;20127;48.962;8.342;2023-02-13T10:15:40;5.10;99.90
33825;DHT22;20127;48.962;8.342;2023-02-13T10:18:49;5.20;99.90
33825;DHT22;20127;48.962;8.342;2023-02-13T10:21:57;5.40;99.90
33825;DHT22;20127;48.962;8.342;2023-02-13T10:25:02;5.60;99.90
33825;DHT22;20127;48.962;8.342;2023-02-13T10:28:08;5.70;99.90
33825;DHT22;20127;48.962;8.342;2023-02-13T10:31:14;5.70;99.90
33825;DHT22;20127;48.962;8.342;2023-02-13T10:34:25;5.90;99.90
33825;DHT22;20127;48.962;8.342;2023-02-13T10:37:28;6.10;99.90
33825;DHT22;20127;48.962;8.342;2023-02-13T10:40:32;6.20;99.90
33825;DHT22;20127;48.962;8.342;2023-02-13T10:43:46;6.50;99.90
33825;DHT22;20127;48.962;8.342;2023-02-13T10:46:58;6.90;99.90
33825;DHT22;20127;48.962;8.342;2023-02-13T10:50:15;7.60;99.90
33825;DHT22;20127;48.962;8.342;2023-02-13T10:53:23;8.20;99.90
33825;DHT22;20127;48.962;8.342;2023-02-13T10:56:31;8.60;99.90
33825;DHT22;20127;48.962;8.342;2023-02-13T10:59:46;9.10;99.90
33825;DHT22;20127;48.962;8.342;2023-02-13T11:02:50;9.70;99.90
33825;DHT22;20127;48.962;8.342;2023-02-13T11:05:54;10.20;99.90
33825;DHT22;20127;48.962;8.342;2023-02-13T11:08:57;10.60;99.90
33825;DHT22;20127;48.962;8.342;2023-02-13T11:12:22;10.90;99.90
33825;DHT22;20127;48.962;8.342;2023-02-13T11:15:26;11.30;99.90
33825;DHT22;20127;48.962;8.342;2023-02-13T11:18:30;11.50;99.90
33825;DHT22;20127;48.962;8.342;2023-02-13T11:21:35;11.90;99.90
33825;DHT22;20127;48.962;8.342;2023-02-13T11:24:39;12.30;99.90
33825;DHT22;20127;48.962;8.342;2023-02-13T11:27:41;12.70;99.90
33825;DHT22;20127;48.962;8.342;2023-02-13T11:30:44;13.00;99.90
33825;DHT22;20127;48.962;8.342;2023-02-13T11:33:46;13.10;99.90
33825;DHT22;20127;48.962;8.342;2023-02-13T11:36:50;13.30;99.90
33825;DHT22;20127;48.962;8.342;2023-02-13T11:39:53;13.50;99.90
33825;DHT22;20127;48.962;8.342;2023-02-13T11:42:55;13.70;99.90
33825;DHT22;20127;48.962;8.342;2023-02-13T11:46:02;14.00;99.90
33825;DHT22;20127;48.962;8.342;2023-02-13T11:49:05;14.30;99.90
33825;DHT22;20127;48.962;8.342;2023-02-13T11:52:26;14.50;99.40
33825;DHT22;20127;48.962;8.342;2023-02-13T11:55:33;14.60;98.80
33825;DHT22;20127;48.962;8.342;2023-02-13T11:58:35;14.80;98.50
33825;DHT22;20127;48.962;8.342;2023-02-13T12:01:37;14.80;97.80
33825;DHT22;20127;48.962;8.342;2023-02-13T12:04:39;14.90;97.40
33825;DHT22;20127;48.962;8.342;2023-02-13T12:07:44;15.00;96.50
33825;DHT22;20127;48.962;8.342;2023-02-13T12:10:46;14.90;96.40
33825;DHT22;20127;48.962;8.342;2023-02-13T12:13:49;15.00;95.80
33825;DHT22;20127;48.962;8.342;2023-02-13T12:16:54;15.10;95.30
33825;DHT22;20127;48.962;8.342;2023-02-13T12:19:57;15.30;95.00
33825;DHT22;20127;48.962;8.342;2023-02-13T12:23:16;15.40;94.70
33825;DHT22;20127;48.962;8.342;2023-02-13T12:26:41;15.40;94.00
33825;DHT22;20127;48.962;8.342;2023-02-13T12:30:01;15.60;93.70
33825;DHT22;20127;48.962;8.342;2023-02-13T12:33:12;15.70;93.10
33825;DHT22;20127;48.962;8.342;2023-02-13T12:36:20;15.80;93.10
33825;DHT22;20127;48.962;8.342;2023-02-13T12:39:30;16.20;92.60
33825;DHT22;20127;48.962;8.342;2023-02-13T12:42:42;16.50;91.70
33825;DHT22;20127;48.962;8.342;2023-02-13T12:45:49;16.80;91.20
33825;DHT22;20127;48.962;8.342;2023-02-13T12:49:02;16.90;90.70
33825;DHT22;20127;48.962;8.342;2023-02-13T12:52:23;16.90;90.30
33825;DHT22;20127;48.962;8.342;2023-02-13T12:55:38;16.90;89.30
33825;DHT22;20127;48.962;8.342;2023-02-13T12:58:57;17.00;89.30
33825;DHT22;20127;48.962;8.342;2023-02-13T13:02:42;17.20;88.10
33825;DHT22;20127;48.962;8.342;2023-02-13T13:06:03;17.40;87.30
33825;DHT22;20127;48.962;8.342;2023-02-13T13:09:27;17.50;86.30
33825;DHT22;20127;48.962;8.342;2023-02-13T13:12:41;17.60;86.00
33825;DHT22;20127;48.962;8.342;2023-02-13T13:15:51;17.70;85.30
33825;DHT22;20127;48.962;8.342;2023-02-13T13:19:02;17.50;85.10
33825;DHT22;20127;48.962;8.342;2023-02-13T13:22:11;17.50;84.40
33825;DHT22;20127;48.962;8.342;2023-02-13T13:25:20;17.50;84.10
33825;DHT22;20127;48.962;8.342;2023-02-13T13:28:31;17.60;84.00
33825;DHT22;20127;48.962;8.342;2023-02-13T13:31:34;17.80;83.50
33825;DHT22;20127;48.962;8.342;2023-02-13T13:34:38;17.70;83.10
33825;DHT22;20127;48.962;8.342;2023-02-13T13:37:43;17.70;82.40
33825;DHT22;20127;48.962;8.342;2023-02-13T13:40:51;17.70;82.20
33825;DHT22;20127;48.962;8.342;2023-02-13T13:44:15;17.80;81.60
33825;DHT22;20127;48.962;8.342;2023-02-13T13:47:25;17.80;81.30
33825;DHT22;20127;48.962;8.342;2023-02-13T13:50:35;18.10;80.80
33825;DHT22;20127;48.962;8.342;2023-02-13T13:54:18;18.20;80.20
33825;DHT22;20127;48.962;8.342;2023-02-13T13:57:21;18.20;79.50
33825;DHT22;20127;48.962;8.342;2023-02-13T14:00:27;18.10;79.80
33825;DHT22;20127;48.962;8.342;2023-02-13T14:03:36;18.10;79.70
33825;DHT22;20127;48.962;8.342;2023-02-13T14:17:54;17.70;79.40
33825;DHT22;20127;48.962;8.342;2023-02-13T14:20:59;17.80;79.30
33825;DHT22;20127;48.962;8.342;2023-02-13T14:24:01;17.80;79.10
33825;DHT22;20127;48.962;8.342;2023-02-13T14:27:03;17.60;78.50
33825;DHT22;20127;48.962;8.342;2023-02-13T14:30:25;17.40;78.80
33825;DHT22;20127;48.962;8.342;2023-02-13T14:33:30;17.10;78.90
33825;DHT22;20127;48.962;8.342;2023-02-13T14:36:34;17.20;79.10
33825;DHT22;20127;48.962;8.342;2023-02-13T14:39:36;17.30;78.50
33825;DHT22;20127;48.962;8.342;2023-02-13T14:42:43;17.20;78.50
33825;DHT22;20127;48.962;8.342;2023-02-13T14:45:50;16.90;78.40
33825;DHT22;20127;48.962;8.342;2023-02-13T14:48:59;16.90;78.90
33825;DHT22;20127;48.962;8.342;2023-02-13T14:52:04;17.00;78.60
33825;DHT22;20127;48.962;8.342;2023-02-13T14:55:13;16.80;78.30
33825;DHT22;20127;48.962;8.342;2023-02-13T14:58:22;16.60;78.40
33825;DHT22;20127;48.962;8.342;2023-02-13T15:01:27;16.60;78.90
33825;DHT22;20127;48.962;8.342;2023-02-13T15:04:36;16.70;79.00
33825;DHT22;20127;48.962;8.342;2023-02-13T15:07:44;16.70;78.60
33825;DHT22;20127;48.962;8.342;2023-02-13T15:10:48;16.50;78.90
33825;DHT22;20127;48.962;8.342;2023-02-13T15:13:50;16.40;79.10
33825;DHT22;20127;48.962;8.342;2023-02-13T15:16:54;16.10;79.10
33825;DHT22;20127;48.962;8.342;2023-02-13T15:20:03;16.10;80.00
33825;DHT22;20127;48.962;8.342;2023-02-13T15:23:18;16.10;79.80
33825;DHT22;20127;48.962;8.342;2023-02-13T15:26:21;16.10;80.00
33825;DHT22;20127;48.962;8.342;2023-02-13T15:29:24;16.00;80.00
33825;DHT22;20127;48.962;8.342;2023-02-13T15:32:28;15.90;80.20
33825;DHT22;20127;48.962;8.342;2023-02-13T15:35:33;15.70;80.30
33825;DHT22;20127;48.962;8.342;2023-02-13T15:38:36;15.40;81.00
33825;DHT22;20127;48.962;8.342;2023-02-13T15:41:41;15.20;81.50
33825;DHT22;20127;48.962;8.342;2023-02-13T15:44:44;15.00;81.70
33825;DHT22;20127;48.962;8.342;2023-02-13T15:47:48;14.90;82.20
33825;DHT22;20127;48.962;8.342;2023-02-13T15:50:51;14.50;83.20
33825;DHT22;20127;48.962;8.342;2023-02-13T15:53:55;13.90;83.90
33825;DHT22;20127;48.962;8.342;2023-02-13T15:57:01;13.20;85.00
33825;DHT22;20127;48.962;8.342;2023-02-13T16:00:08;12.60;86.20
33825;DHT22;20127;48.962;8.342;2023-02-13T16:03:15;12.20;87.10
33825;DHT22;20127;48.962;8.342;2023-02-13T16:06:20;11.60;88.00
33825;DHT22;20127;48.962;8.342;2023-02-13T16:09:26;11.20;89.30
33825;DHT22;20127;48.962;8.342;2023-02-13T16:12:28;10.80;90.00
33825;DHT22;20127;48.962;8.342;2023-02-13T16:15:33;10.40;90.40
33825;DHT22;20127;48.962;8.342;2023-02-13T16:18:35;10.00;90.90
33825;DHT22;20127;48.962;8.342;2023-02-13T16:21:38;9.70;91.30
33825;DHT22;20127;48.962;8.342;2023-02-13T16:24:45;9.40;91.70
33825;DHT22;20127;48.962;8.342;2023-02-13T16:27:50;9.10;92.00
33825;DHT22;20127;48.962;8.342;2023-02-13T16:30:55;8.90;92.30
33825;DHT22;20127;48.962;8.342;2023-02-13T16:33:58;8.60;92.60
33825;DHT22;20127;48.962;8.342;2023-02-13T16:37:03;8.40;93.00
33825;DHT22;20127;48.962;8.342;2023-02-13T16:40:36;8.20;93.40
33825;DHT22;20127;48.962;8.342;2023-02-13T16:43:41;7.90;93.90
33825;DHT22;20127;48.962;8.342;2023-02-13T16:46:47;7.70;94.00
33825;DHT22;20127;48.962;8.342;2023-02-13T16:49:52;7.50;94.70
33825;DHT22;20127;48.962;8.342;2023-02-13T16:53:00;7.40;94.90
33825;DHT22;20127;48.962;8.342;2023-02-13T16:56:05;7.20;95.20
33825;DHT22;20127;48.962;8.342;2023-02-13T17:02:49;6.70;95.80
33825;DHT22;20127;48.962;8.342;2023-02-13T17:05:53;6.60;96.00
33825;DHT22;20127;48.962;8.342;2023-02-13T17:08:57;6.40;96.40
33825;DHT22;20127;48.962;8.342;2023-02-13T17:11:58;6.50;97.70
33825;DHT22;20127;48.962;8.342;2023-02-13T17:15:00;6.90;98.00
33825;DHT22;20127;48.962;8.342;2023-02-13T17:18:02;7.30;97.90
33825;DHT22;20127;48.962;8.342;2023-02-13T17:21:04;7.00;97.30
33825;DHT22;20127;48.962;8.342;2023-02-13T17:24:12;6.60;97.50
33825;DHT22;20127;48.962;8.342;2023-02-13T17:27:16;6.20;97.90
33825;DHT22;20127;48.962;8.342;2023-02-13T17:30:21;5.90;98.30
33825;DHT22;20127;48.962;8.342;2023-02-13T17:33:24;5.70;98.70
33825;DHT22;20127;48.962;8.342;2023-02-13T17:36:26;5.50;99.10
33825;DHT22;20127;48.962;8.342;2023-02-13T17:39:29;5.30;99.50
33825;DHT22;20127;48.962;8.342;2023-02-13T17:42:31;5.20;99.80
33825;DHT22;20127;48.962;8.342;2023-02-13T17:45:34;5.00;99.90
33825;DHT22;20127;48.962;8.342;2023-02-13T17:48:36;4.90;99.90
33825;DHT22;20127;48.962;8.342;2023-02-13T17:51:38;4.80;99.90
33825;DHT22;20127;48.962;8.342;2023-02-13T17:54:44;4.60;99.90
33825;DHT22;20127;48.962;8.342;2023-02-13T17:57:46;4.50;99.90
33825;DHT22;20127;48.962;8.342;2023-02-13T18:00:48;4.40;99.90
33825;DHT22;20127;48.962;8.342;2023-02-13T18:03:50;4.30;99.90
33825;DHT22;20127;48.962;8.342;2023-02-13T18:06:52;4.10;99.90
33825;DHT22;20127;48.962;8.342;2023-02-13T18:09:55;4.00;99.90
33825;DHT22;20127;48.962;8.342;2023-02-13T18:12:57;3.90;99.90
33825;DHT22;20127;48.962;8.342;2023-02-13T18:16:07;3.80;99.90
33825;DHT22;20127;48.962;8.342;2023-02-13T18:19:09;3.80;99.90
33825;DHT22;20127;48.962;8.342;2023-02-13T18:22:11;3.70;99.90
33825;DHT22;20127;48.962;8.342;2023-02-13T18:25:14;3.60;99.90
33825;DHT22;20127;48.962;8.342;2023-02-13T18:28:15;3.50;99.90
33825;DHT22;20127;48.962;8.342;2023-02-13T18:31:17;3.40;99.90
33825;DHT22;20127;48.962;8.342;2023-02-13T18:34:19;3.40;99.90
33825;DHT22;20127;48.962;8.342;2023-02-13T18:37:21;3.30;99.90
33825;DHT22;20127;48.962;8.342;2023-02-13T18:40:25;3.20;99.90
33825;DHT22;20127;48.962;8.342;2023-02-13T18:43:26;3.10;99.90
33825;DHT22;20127;48.962;8.342;2023-02-13T18:46:28;3.00;99.90
33825;DHT22;20127;48.962;8.342;2023-02-13T18:49:34;2.90;99.90
33825;DHT22;20127;48.962;8.342;2023-02-13T18:52:36;2.80;99.90
33825;DHT22;20127;48.962;8.342;2023-02-13T18:55:40;2.80;99.90
33825;DHT22;20127;48.962;8.342;2023-02-13T18:58:42;2.80;99.90
33825;DHT22;20127;48.962;8.342;2023-02-13T19:01:44;2.70;99.90
33825;DHT22;20127;48.962;8.342;2023-02-13T19:04:46;2.70;99.90
33825;DHT22;20127;48.962;8.342;2023-02-13T19:07:47;2.70;99.90
33825;DHT22;20127;48.962;8.342;2023-02-13T19:10:50;2.60;99.90
33825;DHT22;20127;48.962;8.342;2023-02-13T19:13:54;2.50;99.90
33825;DHT22;20127;48.962;8.342;2023-02-13T19:16:56;2.50;99.90
33825;DHT22;20127;48.962;8.342;2023-02-13T19:19:58;2.40;99.90
33825;DHT22;20127;48.962;8.342;2023-02-13T19:22:59;2.40;99.90
33825;DHT22;20127;48.962;8.342;2023-02-13T19:26:05;2.40;99.90
33825;DHT22;20127;48.962;8.342;2023-02-13T19:29:06;2.30;99.90
33825;DHT22;20127;48.962;8.342;2023-02-13T19:32:08;2.30;99.90
33825;DHT22;20127;48.962;8.342;2023-02-13T19:35:10;2.20;99.90
33825;DHT22;20127;48.962;8.342;2023-02-13T19:38:12;2.20;99.90
33825;DHT22;20127;48.962;8.342;2023-02-13T19:41:16;2.00;99.90
33825;DHT22;20127;48.962;8.342;2023-02-13T19:44:18;2.00;99.90
33825;DHT22;20127;48.962;8.342;2023-02-13T19:47:20;1.90;99.90
33825;DHT22;20127;48.962;8.342;2023-02-13T19:50:21;1.80;99.90
33825;DHT22;20127;48.962;8.342;2023-02-13T19:53:23;1.70;99.90
33825;DHT22;20127;48.962;8.342;2023-02-13T19:56:27;1.70;99.90
33825;DHT22;20127;48.962;8.342;2023-02-13T19:59:29;1.60;99.90
33825;DHT22;20127;48.962;8.342;2023-02-13T20:02:31;1.60;99.90
33825;DHT22;20127;48.962;8.342;2023-02-13T20:05:38;1.50;99.90
33825;DHT22;20127;48.962;8.342;2023-02-13T20:08:40;1.50;99.90